Upstream stations:
Downstream station:
SHEF ID: BFFO2 Cimarron River near Buffalo, OK
STATION TYPE:
Regulating: Stage = 6.00, Flow = 750
PRECIP STAGE RIV-FLOW BAT-LOAD
in ft cfs volt
Ccp-Rev Ccp-Rev Ccp-Rev Ccp-Rev
(US/Central)
01/25 00:00 0.00 3.31 17 12.73
01/25 01:00 0.00 3.31 17 12.73
01/25 02:00 0.00 3.31 17 12.65
01/25 03:00 0.00 3.30 16 12.65
01/25 04:00 0.00 3.29 16 12.65
01/25 05:00 0.00 3.31 17 12.57
01/25 06:00 0.00 3.28 15 12.57
01/25 07:00 0.00 3.31 17 12.57
01/25 08:00 0.00 3.28 15 12.57
01/25 09:00 0.00 3.30 16 12.57
01/25 10:00 0.00 3.28 15 13.05
01/25 11:00 0.00 3.31 17 13.60
01/25 12:00 0.00 3.32 18 13.68
01/25 13:00 0.00 3.30 16 13.53
01/25 14:00 0.00 3.31 17 13.60
01/25 15:00 0.00 3.30 16 13.68
01/25 16:00 0.00 3.29 16 13.60
01/25 17:00 0.00 3.28 15 13.37
01/25 18:00 0.00 3.31 17 13.05
01/25 19:00 0.00 3.31 17 12.81
01/25 20:00 0.00 3.28 15 12.81
01/25 21:00 0.00 3.32 18 12.73
01/25 22:00 0.00 3.29 16 12.73
01/25 23:00 0.00 3.28 15 12.65